Time;durP1;ratioP1;P1;durP2;ratioP2;P2;SDS_P1;SDS_P2;PMS_P1;PMS_P2;Temp;Humidity;BMP_temperature;BMP_pressure;BME280_temperature;BME280_humidity;BME280_pressure;Samples;Min_cycle;Max_cycle;Signal;HPM_P1;HPM_P2
2022/10/12 00:01:04;;;;;;;6.60;6.13;;;22.00;41.00;;;;;;5008100;28;22741;-64
2022/10/12 00:03:30;;;;;;;6.10;5.80;;;21.90;40.90;;;;;;5002365;28;20958;-64
2022/10/12 00:06:19;;;;;;;7.13;6.63;;;22.00;41.00;;;;;;5002040;28;20677;-68
2022/10/12 00:08:47;;;;;;;7.67;7.17;;;21.90;40.90;;;;;;4990659;28;20322;-68
2022/10/12 00:11:16;;;;;;;6.37;5.97;;;21.90;40.90;;;;;;5004070;28;20471;-61
2022/10/12 00:13:42;;;;;;;6.30;5.90;;;21.90;40.90;;;;;;4993388;28;20456;-67
2022/10/12 00:16:09;;;;;;;6.50;6.10;;;21.90;40.90;;;;;;4996808;28;20452;-62
2022/10/12 00:18:36;;;;;;;7.00;6.40;;;21.90;40.90;;;;;;5007276;28;20310;-69
2022/10/12 00:21:14;;;;;;;6.40;6.00;;;21.90;40.90;;;;;;5005833;28;20479;-64
2022/10/12 00:23:41;;;;;;;6.60;6.20;;;21.90;40.90;;;;;;5002282;28;20494;-67
2022/10/12 00:26:09;;;;;;;7.10;6.60;;;21.90;40.90;;;;;;5003107;28;20955;-66
2022/10/12 00:28:36;;;;;;;7.10;6.70;;;21.90;40.90;;;;;;5004979;28;20453;-68
2022/10/12 00:31:05;;;;;;;6.47;6.07;;;21.90;40.90;;;;;;5011794;28;20467;-64
2022/10/12 00:33:31;;;;;;;6.53;5.93;;;21.90;40.90;;;;;;4998873;28;20986;-64
2022/10/12 00:35:56;;;;;;;6.50;6.10;;;21.90;40.90;;;;;;5004427;28;20456;-63
2022/10/12 00:38:22;;;;;;;5.90;5.50;;;21.90;40.90;;;;;;5009356;28;20375;-62
2022/10/12 00:40:48;;;;;;;7.57;7.00;;;21.90;40.90;;;;;;5011176;28;20304;-69
2022/10/12 00:43:38;;;;;;;6.07;5.77;;;21.90;40.90;;;;;;5001926;28;20280;-64
2022/10/12 00:46:17;;;;;;;6.77;6.17;;;21.90;40.90;;;;;;5000938;28;20250;-65
2022/10/12 00:48:44;;;;;;;6.70;6.17;;;21.90;40.90;;;;;;4986014;28;20924;-68
2022/10/12 00:51:11;;;;;;;6.30;5.90;;;21.90;40.90;;;;;;5004156;28;20514;-64
2022/10/12 00:53:41;;;;;;;6.40;6.00;;;21.90;40.90;;;;;;4997701;28;20498;-67
2022/10/12 00:56:11;;;;;;;5.23;5.00;;;21.90;40.90;;;;;;4992410;28;20465;-64
2022/10/12 00:58:37;;;;;;;6.17;5.77;;;21.90;40.90;;;;;;4999878;28;21015;-65
2022/10/12 01:01:03;;;;;;;6.40;5.97;;;21.90;40.90;;;;;;5002068;28;20471;-67
2022/10/12 01:03:30;;;;;;;5.97;5.67;;;21.90;40.90;;;;;;5004208;28;20272;-61
2022/10/12 01:05:56;;;;;;;5.97;5.67;;;21.90;40.90;;;;;;4998680;28;20525;-66
2022/10/12 01:08:22;;;;;;;6.07;5.67;;;21.90;40.90;;;;;;4999634;28;22146;-69
2022/10/12 01:10:47;;;;;;;5.40;5.10;;;21.90;40.90;;;;;;4998694;28;20744;-65
2022/10/12 01:13:13;;;;;;;6.30;5.90;;;21.90;40.90;;;;;;5002055;28;20214;-65
2022/10/12 01:15:46;;;;;;;6.33;5.90;;;21.90;40.90;;;;;;5004151;28;20319;-67
2022/10/12 01:18:20;;;;;;;5.87;5.47;;;21.90;40.90;;;;;;4994676;28;20341;-64
2022/10/12 01:20:58;;;;;;;5.80;5.50;;;21.90;40.90;;;;;;5000486;28;21120;-63
2022/10/12 01:23:32;;;;;;;6.03;5.63;;;21.90;40.90;;;;;;5000537;28;20463;-63
2022/10/12 01:26:17;;;;;;;7.13;5.63;;;21.90;40.90;;;;;;5006335;28;20471;-65
2022/10/12 01:28:51;;;;;;;5.93;5.60;;;21.90;40.90;;;;;;5001061;28;20963;-67
2022/10/12 01:31:29;;;;;;;5.77;5.47;;;21.90;40.90;;;;;;4998841;28;22315;-68
2022/10/12 01:34:27;;;;;;;6.30;5.70;;;21.90;40.90;;;;;;5000151;28;20647;-65
2022/10/12 01:37:15;;;;;;;5.63;5.33;;;21.90;40.90;;;;;;5003416;28;20498;-69
2022/10/12 01:39:48;;;;;;;5.20;4.90;;;21.90;40.90;;;;;;5003665;28;20489;-62
2022/10/12 01:42:19;;;;;;;6.50;6.10;;;21.90;40.90;;;;;;5001758;28;20494;-62
2022/10/12 01:44:45;;;;;;;6.17;5.77;;;21.90;40.90;;;;;;4999928;28;21110;-61
2022/10/12 01:47:10;;;;;;;5.70;5.40;;;21.90;40.90;;;;;;4991280;28;20460;-66
2022/10/12 01:49:36;;;;;;;6.37;6.00;;;21.90;40.90;;;;;;4994111;28;20350;-68
2022/10/12 01:52:29;;;;;;;5.37;5.07;;;21.90;40.90;;;;;;4997107;28;20254;-66
2022/10/12 01:55:10;;;;;;;4.97;4.73;;;21.90;40.90;;;;;;4992472;28;20843;-64
2022/10/12 01:57:49;;;;;;;5.50;5.20;;;21.90;40.90;;;;;;4997521;28;20471;-67
2022/10/12 02:00:16;;;;;;;4.80;4.60;;;21.90;40.90;;;;;;4994835;28;20468;-61
2022/10/12 02:02:47;;;;;;;7.30;5.67;;;21.90;40.90;;;;;;5000224;28;20796;-66
2022/10/12 02:05:38;;;;;;;5.20;4.90;;;21.90;40.90;;;;;;5002082;28;20464;-67
2022/10/12 02:08:26;;;;;;;5.60;5.20;;;21.90;40.90;;;;;;4992197;28;20465;-64
2022/10/12 02:10:57;;;;;;;5.03;4.73;;;21.90;40.90;;;;;;4998267;28;20467;-64
2022/10/12 02:13:27;;;;;;;5.63;5.30;;;21.90;40.90;;;;;;4998939;28;20475;-62
2022/10/12 02:15:53;;;;;;;5.60;5.30;;;21.90;40.90;;;;;;4995288;28;20490;-67
2022/10/12 02:18:20;;;;;;;5.80;5.50;;;21.90;40.90;;;;;;4996944;28;20525;-63
2022/10/12 02:20:49;;;;;;;4.97;4.67;;;21.90;40.90;;;;;;5005742;28;20488;-68
2022/10/12 02:23:16;;;;;;;5.60;5.20;;;21.90;40.90;;;;;;5004933;28;20530;-67
2022/10/12 02:25:42;;;;;;;4.97;4.77;;;21.90;40.90;;;;;;5001823;28;20474;-62
2022/10/12 02:28:12;;;;;;;5.63;5.23;;;21.90;40.90;;;;;;4997658;28;20460;-68
2022/10/12 02:30:51;;;;;;;5.87;5.57;;;21.90;40.90;;;;;;5001779;28;20279;-68
2022/10/12 02:33:38;;;;;;;5.57;5.17;;;21.90;40.90;;;;;;4992164;28;20555;-61
2022/10/12 02:36:10;;;;;;;5.20;4.90;;;21.90;40.90;;;;;;4993509;28;20457;-65
2022/10/12 02:39:09;;;;;;;5.20;4.90;;;21.90;40.90;;;;;;4999505;28;20545;-68
2022/10/12 02:41:43;;;;;;;4.47;4.27;;;21.90;40.90;;;;;;4999557;28;20467;-69
2022/10/12 02:44:12;;;;;;;4.70;4.50;;;21.90;40.90;;;;;;5000860;28;20475;-63
2022/10/12 02:46:39;;;;;;;5.50;5.20;;;21.90;40.90;;;;;;4996785;28;20468;-69
2022/10/12 02:49:06;;;;;;;5.37;5.07;;;21.90;40.90;;;;;;5006750;28;20579;-67
2022/10/12 02:51:34;;;;;;;5.47;4.80;;;21.90;40.90;;;;;;5011273;28;20898;-66
2022/10/12 02:54:01;;;;;;;4.97;4.77;;;21.90;40.90;;;;;;5011009;28;20467;-62
2022/10/12 02:56:26;;;;;;;4.97;4.67;;;21.90;40.90;;;;;;5008564;28;20477;-67
2022/10/12 02:58:52;;;;;;;4.80;4.60;;;21.90;40.90;;;;;;4998969;28;20847;-62
2022/10/12 03:01:17;;;;;;;5.57;5.30;;;21.90;40.90;;;;;;4999925;28;20326;-62
2022/10/12 03:03:44;;;;;;;5.30;5.10;;;21.90;40.90;;;;;;5002128;28;20317;-66
2022/10/12 03:06:10;;;;;;;5.30;5.00;;;21.90;40.90;;;;;;5005873;28;20243;-64
2022/10/12 03:08:35;;;;;;;4.60;4.30;;;21.90;40.90;;;;;;5004318;28;20462;-67
2022/10/12 03:11:05;;;;;;;5.07;4.77;;;21.90;40.90;;;;;;5005077;28;21400;-69
2022/10/12 03:13:31;;;;;;;5.20;4.90;;;21.90;40.90;;;;;;4997126;28;20690;-67
2022/10/12 03:16:05;;;;;;;5.50;5.20;;;21.90;40.90;;;;;;4998227;28;20444;-68
2022/10/12 03:18:31;;;;;;;5.20;4.90;;;21.90;40.90;;;;;;4995953;28;20607;-68
2022/10/12 03:20:57;;;;;;;4.63;4.33;;;21.80;41.60;;;;;;4995663;28;21075;-70
2022/10/12 03:23:22;;;;;;;5.07;4.67;;;21.80;40.80;;;;;;4989616;28;20277;-66
2022/10/12 03:25:48;;;;;;;5.00;4.70;;;21.90;40.90;;;;;;5003566;28;20232;-62
2022/10/12 03:28:14;;;;;;;4.67;4.47;;;21.80;40.80;;;;;;4997832;28;22880;-65
2022/10/12 03:30:39;;;;;;;4.60;4.40;;;21.80;40.80;;;;;;5004181;28;20308;-64
2022/10/12 03:33:05;;;;;;;4.50;4.30;;;21.90;40.90;;;;;;4994698;28;20250;-68
2022/10/12 03:35:30;;;;;;;4.33;4.13;;;21.80;40.80;;;;;;5002757;28;21717;-65
2022/10/12 03:37:56;;;;;;;4.60;4.40;;;21.90;40.90;;;;;;4998158;28;20686;-69
2022/10/12 03:40:21;;;;;;;5.20;4.73;;;21.80;40.80;;;;;;5006656;28;20226;-65
2022/10/12 03:42:47;;;;;;;4.70;4.50;;;21.80;40.80;;;;;;5000523;28;20247;-67
2022/10/12 03:45:12;;;;;;;5.00;4.70;;;21.80;40.80;;;;;;5003400;28;20222;-66
2022/10/12 03:47:38;;;;;;;4.60;4.30;;;21.80;40.80;;;;;;5004948;28;20218;-65
2022/10/12 03:50:04;;;;;;;4.40;4.10;;;21.80;40.80;;;;;;5000750;28;20293;-70
2022/10/12 03:52:30;;;;;;;4.90;4.53;;;21.80;40.80;;;;;;4983141;28;20238;-67
2022/10/12 03:54:56;;;;;;;4.20;4.00;;;21.80;40.80;;;;;;5000751;28;20816;-68
2022/10/12 03:57:21;;;;;;;5.40;5.07;;;21.80;40.80;;;;;;4995409;28;20460;-66
2022/10/12 03:59:47;;;;;;;4.17;3.97;;;21.80;40.80;;;;;;5000824;28;20442;-68
2022/10/12 04:02:12;;;;;;;4.20;4.00;;;21.80;40.80;;;;;;4994762;28;20557;-68
2022/10/12 04:04:38;;;;;;;4.47;4.27;;;21.80;40.80;;;;;;4996233;28;20231;-66
2022/10/12 04:07:03;;;;;;;4.30;4.10;;;21.80;40.80;;;;;;4993351;28;20227;-64
2022/10/12 04:09:29;;;;;;;4.40;4.20;;;21.80;40.80;;;;;;5002985;28;21581;-65
2022/10/12 04:11:54;;;;;;;4.40;4.20;;;21.80;40.80;;;;;;5003195;28;20222;-63
2022/10/12 04:14:20;;;;;;;4.23;4.03;;;21.80;40.80;;;;;;5005076;28;20218;-65
2022/10/12 04:16:45;;;;;;;4.20;3.90;;;21.80;40.80;;;;;;5000071;28;20227;-64
2022/10/12 04:19:12;;;;;;;4.37;4.17;;;21.80;40.80;;;;;;4995730;28;20335;-69
2022/10/12 04:21:38;;;;;;;4.10;3.90;;;21.80;40.80;;;;;;5008876;28;20408;-69
2022/10/12 04:24:03;;;;;;;4.40;4.17;;;21.80;40.80;;;;;;5010648;28;20491;-66
2022/10/12 04:26:29;;;;;;;3.93;3.73;;;21.80;40.80;;;;;;5013274;28;20694;-64
2022/10/12 04:28:54;;;;;;;3.20;3.00;;;21.80;40.80;;;;;;5007677;28;20230;-67
2022/10/12 04:31:20;;;;;;;3.80;3.60;;;21.80;40.80;;;;;;5004372;28;20241;-70
2022/10/12 04:33:46;;;;;;;3.67;3.40;;;21.80;40.80;;;;;;5011630;28;20625;-67
2022/10/12 04:36:11;;;;;;;4.07;3.83;;;21.80;40.70;;;;;;5005108;28;20222;-65
2022/10/12 04:38:37;;;;;;;4.27;4.07;;;21.90;40.80;;;;;;5008840;28;20226;-66
2022/10/12 04:41:02;;;;;;;3.83;3.63;;;21.90;40.70;;;;;;4994086;28;20232;-64
2022/10/12 04:43:28;;;;;;;4.10;3.90;;;21.90;40.70;;;;;;5000703;28;20227;-67
2022/10/12 04:45:58;;;;;;;4.20;4.00;;;21.90;40.50;;;;;;4992823;28;20248;-69
2022/10/12 04:48:25;;;;;;;4.13;3.93;;;21.90;40.50;;;;;;4995993;28;20370;-70
2022/10/12 04:50:51;;;;;;;3.70;3.50;;;21.90;40.50;;;;;;4993768;28;20475;-67
2022/10/12 04:53:16;;;;;;;3.50;3.30;;;21.90;40.50;;;;;;4997665;28;20456;-64
2022/10/12 04:55:42;;;;;;;3.80;3.60;;;21.90;40.30;;;;;;4979993;28;20219;-66
2022/10/12 04:58:08;;;;;;;3.20;3.10;;;21.90;40.30;;;;;;4998404;28;21253;-66
2022/10/12 05:00:33;;;;;;;5.63;3.87;;;21.90;40.30;;;;;;4997336;28;20254;-67
2022/10/12 05:02:59;;;;;;;3.53;3.33;;;21.90;40.30;;;;;;4996053;28;22289;-62
2022/10/12 05:05:24;;;;;;;4.23;3.93;;;21.90;40.40;;;;;;5001292;28;20233;-66
2022/10/12 05:07:50;;;;;;;3.40;3.20;;;21.90;40.30;;;;;;4994749;28;20223;-64
2022/10/12 05:10:16;;;;;;;3.50;3.30;;;21.90;40.30;;;;;;4989400;28;20775;-64
2022/10/12 05:12:42;;;;;;;3.20;3.00;;;21.90;40.30;;;;;;4993976;28;20528;-66
2022/10/12 05:15:09;;;;;;;3.23;3.03;;;21.90;40.30;;;;;;4999286;28;20676;-64
2022/10/12 05:17:34;;;;;;;3.70;3.50;;;21.90;40.30;;;;;;5001200;28;20306;-63
2022/10/12 05:20:00;;;;;;;3.43;3.23;;;21.90;40.30;;;;;;4994360;28;20476;-67
2022/10/12 05:22:25;;;;;;;3.50;3.30;;;21.90;40.30;;;;;;5000127;28;20219;-61
2022/10/12 05:24:51;;;;;;;3.40;3.20;;;21.90;40.30;;;;;;4998308;28;20238;-67
2022/10/12 05:27:16;;;;;;;2.67;2.57;;;21.90;40.40;;;;;;4995598;28;20309;-62
2022/10/12 05:29:42;;;;;;;3.50;3.30;;;21.90;40.40;;;;;;5007931;28;20232;-63
2022/10/12 05:32:07;;;;;;;3.77;3.57;;;21.90;40.30;;;;;;5001246;28;20321;-67
2022/10/12 05:34:33;;;;;;;3.47;3.27;;;21.90;40.30;;;;;;5007954;28;20226;-63
2022/10/12 05:36:58;;;;;;;2.90;2.70;;;21.90;40.30;;;;;;5002319;28;20220;-61
2022/10/12 05:39:24;;;;;;;3.30;3.10;;;21.90;40.30;;;;;;4991089;28;20215;-64
2022/10/12 05:41:53;;;;;;;3.23;3.03;;;21.90;40.30;;;;;;5008144;28;20818;-61
2022/10/12 05:44:19;;;;;;;3.60;3.40;;;21.90;40.30;;;;;;4995850;28;20223;-62
2022/10/12 05:46:45;;;;;;;3.60;3.30;;;21.90;40.30;;;;;;4998841;28;20534;-62
2022/10/12 05:49:10;;;;;;;3.30;3.10;;;21.90;40.20;;;;;;4981336;28;20963;-66
2022/10/12 05:51:37;;;;;;;3.50;3.23;;;21.90;40.20;;;;;;4993289;28;20651;-61
2022/10/12 05:54:03;;;;;;;3.20;3.00;;;21.90;40.20;;;;;;4994571;28;20219;-64
2022/10/12 05:56:28;;;;;;;2.83;2.63;;;21.90;40.20;;;;;;4998040;28;22576;-68
2022/10/12 05:58:54;;;;;;;3.20;3.00;;;21.90;40.20;;;;;;4989303;28;20227;-64
2022/10/12 06:01:19;;;;;;;3.47;3.17;;;21.90;40.10;;;;;;5003795;28;20238;-66
2022/10/12 06:03:45;;;;;;;3.47;3.23;;;21.90;40.10;;;;;;4997976;28;20237;-62
2022/10/12 06:06:11;;;;;;;3.70;3.50;;;21.90;40.10;;;;;;5002518;28;20716;-62
2022/10/12 06:08:36;;;;;;;2.93;2.83;;;21.90;40.10;;;;;;4995317;28;20815;-65
2022/10/12 06:11:02;;;;;;;2.50;2.40;;;21.90;40.10;;;;;;4982087;28;20678;-64
2022/10/12 06:13:28;;;;;;;3.90;3.70;;;21.90;40.10;;;;;;4985559;28;21271;-62
2022/10/12 06:15:53;;;;;;;3.20;3.00;;;21.90;40.10;;;;;;4989072;28;20468;-66
2022/10/12 06:18:19;;;;;;;3.47;3.27;;;21.90;40.10;;;;;;4982419;28;20320;-65
2022/10/12 06:20:50;;;;;;;3.57;3.37;;;21.90;40.10;;;;;;4985944;28;21108;-66
2022/10/12 06:23:16;;;;;;;3.40;3.20;;;21.90;40.00;;;;;;4979201;28;20258;-63
2022/10/12 06:25:41;;;;;;;2.93;2.73;;;21.90;40.00;;;;;;4989749;28;21013;-62
2022/10/12 06:28:07;;;;;;;3.43;3.23;;;21.90;40.00;;;;;;4995138;28;20980;-61
2022/10/12 06:30:32;;;;;;;3.07;2.87;;;21.90;40.00;;;;;;4999414;28;20222;-62
2022/10/12 06:32:58;;;;;;;2.80;2.70;;;21.90;40.00;;;;;;4996998;28;20249;-65
2022/10/12 06:35:23;;;;;;;2.93;2.73;;;21.90;40.00;;;;;;4998801;28;20317;-65
2022/10/12 06:37:50;;;;;;;3.30;3.10;;;21.90;40.10;;;;;;4998858;28;20215;-62
2022/10/12 06:40:17;;;;;;;2.83;2.63;;;21.90;40.10;;;;;;4999611;28;20246;-60
2022/10/12 06:42:42;;;;;;;3.07;2.87;;;21.90;40.10;;;;;;4989848;28;20459;-63
2022/10/12 06:45:08;;;;;;;3.03;2.87;;;21.90;40.10;;;;;;4986849;28;20557;-66
2022/10/12 06:47:34;;;;;;;3.07;2.67;;;21.90;40.90;;;;;;4996803;28;20227;-65
2022/10/12 06:49:59;;;;;;;3.20;3.00;;;21.90;40.10;;;;;;4998331;28;20479;-66
2022/10/12 06:52:25;;;;;;;3.27;3.07;;;21.90;40.00;;;;;;4993595;28;20532;-63
2022/10/12 06:54:50;;;;;;;3.10;2.90;;;21.90;40.10;;;;;;4990188;28;20222;-65
2022/10/12 06:57:16;;;;;;;3.10;2.90;;;21.90;40.00;;;;;;4988695;28;20222;-61
2022/10/12 06:59:41;;;;;;;3.10;2.90;;;21.90;40.00;;;;;;4992246;28;20233;-63
2022/10/12 07:02:11;;;;;;;3.10;2.90;;;21.90;40.00;;;;;;4999443;28;20227;-63
2022/10/12 07:04:37;;;;;;;2.80;2.60;;;21.90;40.00;;;;;;5000614;28;20218;-67
2022/10/12 07:07:03;;;;;;;2.77;2.57;;;21.90;40.00;;;;;;4994828;28;20859;-64
2022/10/12 07:09:28;;;;;;;2.70;2.50;;;21.90;40.00;;;;;;4999221;28;20226;-63
2022/10/12 07:11:54;;;;;;;2.43;2.33;;;21.90;40.00;;;;;;4995118;28;20222;-61
2022/10/12 07:14:20;;;;;;;3.03;2.80;;;21.90;39.90;;;;;;5000220;28;20230;-61
2022/10/12 07:16:46;;;;;;;2.87;2.67;;;21.90;40.00;;;;;;5004989;28;20226;-64
2022/10/12 07:19:12;;;;;;;2.33;2.23;;;21.90;40.00;;;;;;4989558;28;20246;-60
2022/10/12 07:21:37;;;;;;;2.43;2.23;;;21.90;39.90;;;;;;4997057;28;20231;-64
2022/10/12 07:24:03;;;;;;;3.00;2.80;;;21.90;40.00;;;;;;5009216;28;20658;-61
2022/10/12 07:26:30;;;;;;;4.87;3.30;;;21.90;40.00;;;;;;5001087;28;20863;-62
2022/10/12 07:28:56;;;;;;;2.83;2.63;;;21.90;40.00;;;;;;5002607;28;20467;-61
2022/10/12 07:31:21;;;;;;;2.83;2.63;;;21.90;40.00;;;;;;4993509;28;20546;-63
2022/10/12 07:33:47;;;;;;;2.50;2.30;;;21.90;40.00;;;;;;5001862;28;20316;-67
2022/10/12 07:36:12;;;;;;;3.00;2.73;;;21.90;39.90;;;;;;4998362;28;21125;-62
2022/10/12 07:38:38;;;;;;;3.00;2.80;;;21.90;39.90;;;;;;4996935;28;20606;-62
2022/10/12 07:41:04;;;;;;;2.70;2.50;;;21.90;39.90;;;;;;4999543;28;20226;-63
2022/10/12 07:43:30;;;;;;;2.60;2.50;;;21.90;39.90;;;;;;4993413;28;20250;-65
2022/10/12 07:45:56;;;;;;;3.13;2.87;;;21.90;39.90;;;;;;5001164;28;20662;-65
2022/10/12 07:48:22;;;;;;;3.33;3.13;;;21.90;39.90;;;;;;4996884;28;20566;-62
2022/10/12 07:50:47;;;;;;;2.77;2.57;;;21.90;39.90;;;;;;4995040;28;21338;-61
2022/10/12 07:53:14;;;;;;;3.17;2.93;;;21.90;39.90;;;;;;4989796;28;20234;-71
2022/10/12 07:55:39;;;;;;;2.73;2.53;;;21.90;39.90;;;;;;4998852;28;21468;-66
2022/10/12 07:58:05;;;;;;;2.70;2.50;;;21.90;39.90;;;;;;4997433;28;20461;-66
2022/10/12 08:00:31;;;;;;;2.57;2.47;;;21.90;39.90;;;;;;4996747;28;20243;-66
2022/10/12 08:02:57;;;;;;;2.43;2.23;;;21.90;39.90;;;;;;4983997;28;20270;-61
2022/10/12 08:05:23;;;;;;;2.97;2.77;;;21.90;39.90;;;;;;4994280;28;20519;-63
2022/10/12 08:07:50;;;;;;;2.50;2.40;;;21.90;40.00;;;;;;4997176;28;20476;-62
2022/10/12 08:10:17;;;;;;;2.43;2.30;;;21.90;39.90;;;;;;4994364;28;20496;-62
2022/10/12 08:12:46;;;;;;;2.33;2.13;;;21.90;39.90;;;;;;5003591;28;20471;-63
2022/10/12 08:15:12;;;;;;;2.40;2.30;;;21.90;39.90;;;;;;5004887;28;20474;-60
2022/10/12 08:17:38;;;;;;;2.83;2.50;;;21.90;39.90;;;;;;5006160;28;20967;-64
2022/10/12 08:20:05;;;;;;;2.93;2.73;;;21.90;39.90;;;;;;5005609;28;20476;-63
2022/10/12 08:22:31;;;;;;;2.30;2.10;;;21.90;39.90;;;;;;4989952;28;20272;-65
2022/10/12 08:24:56;;;;;;;4.97;2.43;;;22.00;40.00;;;;;;5004684;28;20473;-63
2022/10/12 08:27:22;;;;;;;2.43;2.33;;;21.90;39.90;;;;;;5002520;28;20859;-66
2022/10/12 08:29:47;;;;;;;3.60;2.23;;;21.90;39.90;;;;;;4991316;28;20894;-67
2022/10/12 08:32:13;;;;;;;2.40;2.20;;;21.90;39.90;;;;;;4997090;28;20230;-66
2022/10/12 08:34:38;;;;;;;2.40;2.30;;;21.90;40.00;;;;;;4997734;28;20215;-65
2022/10/12 08:37:04;;;;;;;2.60;2.40;;;21.90;40.70;;;;;;5002488;28;20277;-67
2022/10/12 08:39:29;;;;;;;2.90;2.70;;;21.90;40.00;;;;;;5000223;28;20318;-68
2022/10/12 08:42:14;;;;;;;3.00;2.80;;;21.90;39.90;;;;;;5003068;28;20233;-66
2022/10/12 08:44:56;;;;;;;2.23;2.13;;;21.90;39.90;;;;;;4999625;28;20232;-63
2022/10/12 08:47:43;;;;;;;3.33;3.03;;;21.90;39.90;;;;;;4999816;28;20483;-65
2022/10/12 08:50:38;;;;;;;2.60;2.50;;;21.90;39.90;;;;;;5001939;28;20464;-61
2022/10/12 08:53:14;;;;;;;2.27;2.13;;;21.90;39.90;;;;;;4992966;28;20452;-64
2022/10/12 08:55:43;;;;;;;2.20;2.10;;;21.90;39.90;;;;;;4991325;28;20472;-65
2022/10/12 08:58:21;;;;;;;2.53;2.43;;;22.00;40.10;;;;;;4987706;28;20464;-67
2022/10/12 09:00:52;;;;;;;2.70;2.50;;;21.90;39.90;;;;;;4983673;28;20503;-67
2022/10/12 09:03:32;;;;;;;2.57;2.37;;;22.00;40.10;;;;;;4993389;28;20487;-64
2022/10/12 09:06:16;;;;;;;2.20;2.07;;;21.90;39.90;;;;;;5000073;28;20477;-63
2022/10/12 09:08:53;;;;;;;2.23;2.03;;;22.00;40.00;;;;;;4997430;28;20873;-66
2022/10/12 09:11:38;;;;;;;3.80;2.50;;;22.00;40.10;;;;;;5009623;28;21316;-64
2022/10/12 09:14:16;;;;;;;2.43;2.10;;;21.90;39.90;;;;;;5003763;28;20463;-64
2022/10/12 09:16:45;;;;;;;2.00;1.90;;;22.00;40.00;;;;;;5002522;28;20472;-61
2022/10/12 09:19:33;;;;;;;2.30;2.10;;;22.00;40.10;;;;;;5005071;28;20473;-61
2022/10/12 09:22:01;;;;;;;2.20;2.00;;;21.90;40.00;;;;;;5008643;28;20472;-67
2022/10/12 09:24:32;;;;;;;2.30;2.10;;;22.00;40.00;;;;;;4988482;28;20487;-63
2022/10/12 09:26:59;;;;;;;2.27;2.17;;;21.90;39.90;;;;;;5002018;28;20466;-65
2022/10/12 09:29:32;;;;;;;4.33;1.90;;;21.90;40.00;;;;;;5000317;28;20463;-65
2022/10/12 09:32:19;;;;;;;1.87;1.77;;;21.90;39.90;;;;;;5004824;28;20454;-61
2022/10/12 09:34:45;;;;;;;2.40;2.27;;;21.90;39.90;;;;;;5008180;28;20459;-60
2022/10/12 09:37:22;;;;;;;2.10;2.00;;;22.00;40.00;;;;;;5003747;28;20547;-60
2022/10/12 09:39:48;;;;;;;3.03;2.40;;;21.90;39.90;;;;;;5010449;28;20459;-66
2022/10/12 09:42:14;;;;;;;2.60;2.40;;;21.90;39.90;;;;;;5007509;28;20468;-62
2022/10/12 09:44:45;;;;;;;2.20;2.10;;;21.90;39.90;;;;;;5004252;28;20230;-61
2022/10/12 09:47:20;;;;;;;2.23;2.13;;;21.90;39.90;;;;;;5007927;28;20847;-63
2022/10/12 09:49:47;;;;;;;2.17;2.07;;;21.90;39.90;;;;;;4994257;28;20472;-62
2022/10/12 09:52:16;;;;;;;2.13;1.93;;;21.90;39.90;;;;;;5001960;28;20468;-63
2022/10/12 09:54:46;;;;;;;2.30;2.20;;;22.00;40.00;;;;;;5008760;28;20610;-63
2022/10/12 09:57:21;;;;;;;3.20;2.33;;;21.90;40.00;;;;;;5003909;28;20467;-65
2022/10/12 09:59:47;;;;;;;2.13;2.03;;;22.00;40.00;;;;;;5003709;28;20998;-63
2022/10/12 10:02:16;;;;;;;2.20;2.10;;;22.00;40.00;;;;;;5002977;28;20983;-64
2022/10/12 10:04:44;;;;;;;2.63;2.53;;;21.90;39.90;;;;;;5007377;28;20460;-60
2022/10/12 10:07:32;;;;;;;2.43;2.23;;;21.90;39.90;;;;;;4998897;28;20459;-63
2022/10/12 10:10:16;;;;;;;4.03;2.50;;;22.00;40.00;;;;;;4993917;28;20468;-65
2022/10/12 10:13:00;;;;;;;4.37;2.50;;;21.90;39.90;;;;;;4992553;28;20478;-65
2022/10/12 10:15:34;;;;;;;2.57;2.30;;;22.00;40.10;;;;;;4997731;28;20472;-68
2022/10/12 10:18:02;;;;;;;2.23;2.03;;;22.00;40.10;;;;;;5003844;28;20463;-63
2022/10/12 10:20:42;;;;;;;3.60;2.30;;;22.00;40.10;;;;;;4996581;28;20464;-65
2022/10/12 10:23:28;;;;;;;2.70;2.10;;;22.00;40.10;;;;;;5001936;28;20468;-65
2022/10/12 10:26:04;;;;;;;2.50;2.30;;;21.90;40.00;;;;;;5003231;28;20551;-66
2022/10/12 10:28:35;;;;;;;2.93;2.80;;;22.00;40.10;;;;;;5004162;28;20472;-65
2022/10/12 10:31:15;;;;;;;3.40;2.30;;;22.00;40.10;;;;;;5004405;28;20475;-63
2022/10/12 10:33:42;;;;;;;2.00;1.80;;;22.00;40.00;;;;;;4995019;28;20888;-63
2022/10/12 10:36:16;;;;;;;2.83;2.13;;;22.00;40.00;;;;;;5005441;28;20845;-65
2022/10/12 10:38:57;;;;;;;2.90;2.10;;;22.00;40.00;;;;;;5006132;28;20463;-63
2022/10/12 10:41:33;;;;;;;3.73;2.13;;;22.00;40.00;;;;;;5004611;28;20554;-66
2022/10/12 10:43:58;;;;;;;2.30;2.07;;;22.00;40.00;;;;;;5008673;28;20469;-64
2022/10/12 10:46:29;;;;;;;3.03;2.73;;;22.00;40.00;;;;;;5004918;28;22052;-68
2022/10/12 10:49:06;;;;;;;2.23;2.13;;;22.00;40.00;;;;;;5015703;28;20226;-63
2022/10/12 10:51:58;;;;;;;2.83;2.63;;;22.00;40.00;;;;;;5009057;28;20468;-62
2022/10/12 10:54:26;;;;;;;4.53;2.43;;;22.00;40.00;;;;;;5005775;28;20480;-61
2022/10/12 10:56:57;;;;;;;2.33;2.23;;;22.00;40.00;;;;;;5003211;28;20479;-66
2022/10/12 10:59:34;;;;;;;2.83;2.30;;;22.00;40.00;;;;;;5003784;28;20468;-67
2022/10/12 11:02:15;;;;;;;3.13;2.93;;;22.00;40.00;;;;;;5000184;28;20463;-64
2022/10/12 11:04:44;;;;;;;2.70;2.50;;;22.00;40.00;;;;;;5007921;28;20664;-63
2022/10/12 11:07:19;;;;;;;2.63;2.43;;;22.00;40.00;;;;;;5003895;28;22483;-66
2022/10/12 11:09:52;;;;;;;3.17;2.13;;;22.00;40.10;;;;;;4997874;28;20480;-67
2022/10/12 11:12:49;;;;;;;3.17;2.10;;;22.00;40.00;;;;;;5011333;28;20469;-66
2022/10/12 11:15:40;;;;;;;3.20;2.50;;;22.00;40.00;;;;;;4990259;28;20471;-61
2022/10/12 11:18:17;;;;;;;2.60;2.40;;;22.00;40.00;;;;;;4999629;28;20452;-66
2022/10/12 11:20:52;;;;;;;2.43;2.27;;;22.00;40.00;;;;;;4999925;28;20486;-62
2022/10/12 11:23:26;;;;;;;3.10;2.60;;;22.00;40.00;;;;;;5000270;28;20594;-62
2022/10/12 11:26:00;;;;;;;2.67;2.47;;;22.00;40.00;;;;;;4997839;28;20493;-65
2022/10/12 11:28:30;;;;;;;3.30;2.03;;;22.00;40.00;;;;;;5005711;28;20460;-66
2022/10/12 11:30:56;;;;;;;2.70;2.30;;;22.00;40.10;;;;;;5003139;28;20475;-61
2022/10/12 11:33:23;;;;;;;2.43;2.23;;;22.00;40.00;;;;;;5004524;28;20460;-66
2022/10/12 11:35:50;;;;;;;2.97;2.77;;;22.00;40.00;;;;;;4998145;28;20518;-66
2022/10/12 11:38:43;;;;;;;2.17;2.00;;;22.00;40.00;;;;;;4999366;28;20467;-61
2022/10/12 11:41:23;;;;;;;2.43;2.10;;;22.00;40.10;;;;;;4999613;28;20490;-63
2022/10/12 11:43:59;;;;;;;2.40;2.20;;;22.00;40.00;;;;;;5002075;28;20474;-66
2022/10/12 11:46:39;;;;;;;2.40;2.20;;;22.00;40.10;;;;;;4992187;28;20468;-64
2022/10/12 11:49:18;;;;;;;1.93;1.83;;;22.00;40.10;;;;;;5008790;28;20460;-63
2022/10/12 11:51:47;;;;;;;2.10;2.00;;;21.90;40.00;;;;;;4995297;28;20467;-63
2022/10/12 11:54:37;;;;;;;2.10;2.00;;;21.90;40.00;;;;;;5002274;28;20472;-61
2022/10/12 11:57:11;;;;;;;2.00;1.90;;;21.90;40.00;;;;;;5000771;28;20487;-66
2022/10/12 12:00:01;;;;;;;2.30;2.20;;;21.90;40.00;;;;;;5008467;28;20456;-62
2022/10/12 12:02:42;;;;;;;2.23;2.13;;;21.90;40.00;;;;;;5003752;28;20499;-63
2022/10/12 12:05:13;;;;;;;2.80;2.00;;;21.90;39.90;;;;;;4993781;28;20475;-67
2022/10/12 12:07:52;;;;;;;2.40;2.10;;;21.90;39.90;;;;;;4983750;28;20484;-66
2022/10/12 12:10:29;;;;;;;1.90;1.80;;;21.90;39.90;;;;;;4994135;28;20533;-64
2022/10/12 12:13:11;;;;;;;2.10;2.00;;;21.90;39.90;;;;;;5000665;28;20808;-67
2022/10/12 12:15:38;;;;;;;2.80;2.43;;;21.90;39.90;;;;;;5008356;28;20482;-62
2022/10/12 12:18:23;;;;;;;2.23;2.13;;;21.90;39.90;;;;;;5006286;28;21067;-63
2022/10/12 12:20:48;;;;;;;2.17;2.07;;;21.90;39.90;;;;;;5008800;28;21010;-62
2022/10/12 12:23:24;;;;;;;2.07;1.97;;;21.90;39.90;;;;;;5004088;28;21183;-63
2022/10/12 12:26:08;;;;;;;2.43;1.90;;;21.90;39.90;;;;;;5000506;28;20881;-64
2022/10/12 12:28:55;;;;;;;2.70;1.80;;;21.90;39.80;;;;;;5005229;28;20471;-62
2022/10/12 12:31:27;;;;;;;2.23;1.90;;;21.90;39.90;;;;;;4989722;28;20547;-63
2022/10/12 12:34:14;;;;;;;2.43;2.23;;;21.90;39.80;;;;;;5013033;28;20448;-61
2022/10/12 12:36:43;;;;;;;2.70;2.10;;;21.90;39.80;;;;;;5000996;28;20498;-63
2022/10/12 12:39:32;;;;;;;1.73;1.63;;;21.90;39.80;;;;;;5002783;28;20460;-61
2022/10/12 12:42:00;;;;;;;2.13;1.93;;;21.90;39.80;;;;;;5012043;28;23884;-61
2022/10/12 12:44:39;;;;;;;2.80;1.90;;;21.90;39.80;;;;;;5005211;28;20464;-63
2022/10/12 12:47:17;;;;;;;4.10;2.30;;;21.90;39.80;;;;;;5004586;28;20471;-62
2022/10/12 12:49:51;;;;;;;2.83;2.17;;;21.90;39.80;;;;;;5009749;28;20988;-61
2022/10/12 12:52:24;;;;;;;3.60;2.10;;;21.90;39.80;;;;;;5009639;28;20975;-63
2022/10/12 12:55:14;;;;;;;2.03;1.93;;;21.90;39.80;;;;;;4996442;28;21607;-66
2022/10/12 12:57:54;;;;;;;2.17;1.90;;;21.90;39.80;;;;;;5006229;28;20495;-66
2022/10/12 13:00:23;;;;;;;2.53;2.33;;;21.90;39.80;;;;;;5015656;28;20542;-61
2022/10/12 13:03:10;;;;;;;3.90;2.03;;;21.90;39.80;;;;;;5006369;28;20456;-66
2022/10/12 13:06:15;;;;;;;2.27;2.17;;;21.90;39.80;;;;;;5011994;28;20429;-67